sensor_id;sensor_type;location;lat;lon;timestamp;pressure;altitude;pressure_sealevel;temperature;humidity
22389;BME280;11362;48.102;11.620;2023-02-27T00:02:00;95328.38;;;23.38;35.63
22389;BME280;11362;48.102;11.620;2023-02-27T00:04:26;95321.63;;;23.39;35.56
22389;BME280;11362;48.102;11.620;2023-02-27T00:06:51;95329.97;;;23.39;35.49
22389;BME280;11362;48.102;11.620;2023-02-27T00:09:17;95330.38;;;23.38;35.60
22389;BME280;11362;48.102;11.620;2023-02-27T00:11:42;95335.50;;;23.39;35.79
22389;BME280;11362;48.102;11.620;2023-02-27T00:14:08;95329.97;;;23.39;35.27
22389;BME280;11362;48.102;11.620;2023-02-27T00:16:33;95332.72;;;23.39;35.25
22389;BME280;11362;48.102;11.620;2023-02-27T00:18:58;95333.16;;;23.38;35.34
22389;BME280;11362;48.102;11.620;2023-02-27T00:21:23;95338.72;;;23.38;35.16
22389;BME280;11362;48.102;11.620;2023-02-27T00:23:49;95328.38;;;23.38;35.11
22389;BME280;11362;48.102;11.620;2023-02-27T00:26:14;95332.38;;;23.38;35.05
22389;BME280;11362;48.102;11.620;2023-02-27T00:28:39;95326.81;;;23.38;35.16
22389;BME280;11362;48.102;11.620;2023-02-27T00:31:05;95332.38;;;23.38;35.05
22389;BME280;11362;48.102;11.620;2023-02-27T00:33:30;95339.88;;;23.37;34.78
22389;BME280;11362;48.102;11.620;2023-02-27T00:35:57;95333.94;;;23.38;35.03
22389;BME280;11362;48.102;11.620;2023-02-27T00:38:22;95334.72;;;23.39;35.01
22389;BME280;11362;48.102;11.620;2023-02-27T00:40:48;95336.28;;;23.40;34.89
22389;BME280;11362;48.102;11.620;2023-02-27T00:43:13;95339.47;;;23.38;34.98
22389;BME280;11362;48.102;11.620;2023-02-27T00:45:38;95337.91;;;23.38;34.97
22389;BME280;11362;48.102;11.620;2023-02-27T00:48:03;95339.47;;;23.38;35.00
22389;BME280;11362;48.102;11.620;2023-02-27T00:50:29;95340.69;;;23.38;34.90
22389;BME280;11362;48.102;11.620;2023-02-27T00:52:54;95337.09;;;23.37;34.88
22389;BME280;11362;48.102;11.620;2023-02-27T00:55:19;95337.91;;;23.38;34.88
22389;BME280;11362;48.102;11.620;2023-02-27T00:57:44;95337.09;;;23.37;34.87
22389;BME280;11362;48.102;11.620;2023-02-27T01:00:10;95339.47;;;23.38;34.44
22389;BME280;11362;48.102;11.620;2023-02-27T01:02:36;95338.72;;;23.38;35.01
22389;BME280;11362;48.102;11.620;2023-02-27T01:05:02;95335.50;;;23.39;34.64
22389;BME280;11362;48.102;11.620;2023-02-27T01:07:27;95341.03;;;23.39;34.75
22389;BME280;11362;48.102;11.620;2023-02-27T01:09:52;95343.44;;;23.38;34.90
22389;BME280;11362;48.102;11.620;2023-02-27T01:12:18;95335.13;;;23.38;34.77
22389;BME280;11362;48.102;11.620;2023-02-27T01:14:43;95336.34;;;23.37;34.80
22389;BME280;11362;48.102;11.620;2023-02-27T01:17:09;95340.69;;;23.38;34.74
22389;BME280;11362;48.102;11.620;2023-02-27T01:19:34;95330.78;;;23.37;34.71
22389;BME280;11362;48.102;11.620;2023-02-27T01:21:59;95332.38;;;23.38;34.68
22389;BME280;11362;48.102;11.620;2023-02-27T01:24:25;95333.56;;;23.37;34.55
22389;BME280;11362;48.102;11.620;2023-02-27T01:26:50;95330.78;;;23.37;34.48
22389;BME280;11362;48.102;11.620;2023-02-27T01:29:15;95335.94;;;23.38;34.57
22389;BME280;11362;48.102;11.620;2023-02-27T01:31:41;95336.69;;;23.38;34.84
22389;BME280;11362;48.102;11.620;2023-02-27T01:34:06;95331.16;;;23.38;34.51
22389;BME280;11362;48.102;11.620;2023-02-27T01:36:31;95338.28;;;23.39;34.54
22389;BME280;11362;48.102;11.620;2023-02-27T01:38:57;95341.03;;;23.39;34.28
22389;BME280;11362;48.102;11.620;2023-02-27T01:41:22;95335.13;;;23.38;34.37
22389;BME280;11362;48.102;11.620;2023-02-27T01:44:07;95333.16;;;23.38;34.54
22389;BME280;11362;48.102;11.620;2023-02-27T01:46:34;95331.56;;;23.37;34.85
22389;BME280;11362;48.102;11.620;2023-02-27T01:49:04;95338.72;;;23.38;34.38
22389;BME280;11362;48.102;11.620;2023-02-27T01:51:34;95337.50;;;23.39;34.36
22389;BME280;11362;48.102;11.620;2023-02-27T01:54:01;95339.47;;;23.38;34.44
22389;BME280;11362;48.102;11.620;2023-02-27T01:56:29;95341.47;;;23.38;34.37
22389;BME280;11362;48.102;11.620;2023-02-27T01:58:58;95344.25;;;23.38;34.42
22389;BME280;11362;48.102;11.620;2023-02-27T02:01:25;95337.91;;;23.38;34.52
22389;BME280;11362;48.102;11.620;2023-02-27T02:03:58;95344.25;;;23.38;34.38
22389;BME280;11362;48.102;11.620;2023-02-27T02:06:24;95341.88;;;23.37;34.21
22389;BME280;11362;48.102;11.620;2023-02-27T02:08:52;95342.66;;;23.37;34.32
22389;BME280;11362;48.102;11.620;2023-02-27T02:11:19;95350.19;;;23.37;34.45
22389;BME280;11362;48.102;11.620;2023-02-27T02:13:48;95354.53;;;23.38;34.26
22389;BME280;11362;48.102;11.620;2023-02-27T02:19:31;95350.56;;;23.38;34.17
22389;BME280;11362;48.102;11.620;2023-02-27T02:27:40;95340.31;;;23.36;34.16
22389;BME280;11362;48.102;11.620;2023-02-27T02:41:38;95336.34;;;23.37;33.99
22389;BME280;11362;48.102;11.620;2023-02-27T02:46:50;95332.78;;;23.36;33.97
22389;BME280;11362;48.102;11.620;2023-02-27T02:52:22;95338.31;;;23.36;33.62
22389;BME280;11362;48.102;11.620;2023-02-27T02:55:00;95341.88;;;23.37;33.84
22389;BME280;11362;48.102;11.620;2023-02-27T02:57:36;95341.88;;;23.37;33.88
22389;BME280;11362;48.102;11.620;2023-02-27T03:00:18;95349.00;;;23.38;33.73
22389;BME280;11362;48.102;11.620;2023-02-27T03:02:48;95347.44;;;23.37;33.88
22389;BME280;11362;48.102;11.620;2023-02-27T03:05:21;95336.34;;;23.37;33.71
22389;BME280;11362;48.102;11.620;2023-02-27T03:08:02;95338.31;;;23.36;33.75
22389;BME280;11362;48.102;11.620;2023-02-27T03:10:33;95338.31;;;23.36;33.82
22389;BME280;11362;48.102;11.620;2023-02-27T03:13:32;95341.88;;;23.37;33.67
22389;BME280;11362;48.102;11.620;2023-02-27T03:16:09;95341.09;;;23.36;33.66
22389;BME280;11362;48.102;11.620;2023-02-27T03:18:59;95340.31;;;23.36;33.69
22389;BME280;11362;48.102;11.620;2023-02-27T03:21:35;95342.69;;;23.33;33.54
22389;BME280;11362;48.102;11.620;2023-02-27T03:24:05;95348.63;;;23.36;33.68
22389;BME280;11362;48.102;11.620;2023-02-27T03:26:35;95337.53;;;23.36;33.60
22389;BME280;11362;48.102;11.620;2023-02-27T03:29:10;95343.50;;;23.34;33.71
22389;BME280;11362;48.102;11.620;2023-02-27T03:31:40;95345.84;;;23.36;33.69
22389;BME280;11362;48.102;11.620;2023-02-27T03:34:28;95351.41;;;23.36;33.56
22389;BME280;11362;48.102;11.620;2023-02-27T03:37:01;95351.41;;;23.36;33.55
22389;BME280;11362;48.102;11.620;2023-02-27T03:44:50;95351.41;;;23.36;33.62
22389;BME280;11362;48.102;11.620;2023-02-27T03:47:17;95353.75;;;23.37;33.59
22389;BME280;11362;48.102;11.620;2023-02-27T03:49:43;95359.28;;;23.37;33.49
22389;BME280;11362;48.102;11.620;2023-02-27T03:52:08;95353.75;;;23.37;33.47
22389;BME280;11362;48.102;11.620;2023-02-27T03:54:37;95354.53;;;23.38;33.49
22389;BME280;11362;48.102;11.620;2023-02-27T03:57:06;95369.59;;;23.37;33.43
22389;BME280;11362;48.102;11.620;2023-02-27T03:59:32;95364.06;;;23.37;33.41
22389;BME280;11362;48.102;11.620;2023-02-27T04:01:59;95356.94;;;23.36;33.48
22389;BME280;11362;48.102;11.620;2023-02-27T04:04:27;95359.72;;;23.36;33.53
22389;BME280;11362;48.102;11.620;2023-02-27T04:06:57;95352.16;;;23.36;33.37
22389;BME280;11362;48.102;11.620;2023-02-27T04:18:24;95368.03;;;23.36;33.42
22389;BME280;11362;48.102;11.620;2023-02-27T04:21:13;95368.81;;;23.36;33.39
22389;BME280;11362;48.102;11.620;2023-02-27T04:23:56;95370.38;;;23.37;33.33
22389;BME280;11362;48.102;11.620;2023-02-27T04:26:31;95369.59;;;23.37;33.18
22389;BME280;11362;48.102;11.620;2023-02-27T04:29:27;95374.34;;;23.36;33.14
22389;BME280;11362;48.102;11.620;2023-02-27T04:32:02;95374.34;;;23.36;33.43
22389;BME280;11362;48.102;11.620;2023-02-27T04:34:34;95373.94;;;23.38;33.28
22389;BME280;11362;48.102;11.620;2023-02-27T04:37:07;95372.38;;;23.37;33.23
22389;BME280;11362;48.102;11.620;2023-02-27T04:39:48;95371.16;;;23.38;33.25
22389;BME280;11362;48.102;11.620;2023-02-27T04:42:17;95364.06;;;23.37;33.32
22389;BME280;11362;48.102;11.620;2023-02-27T04:44:45;95372.38;;;23.37;33.14
22389;BME280;11362;48.102;11.620;2023-02-27T04:47:13;95369.25;;;23.35;33.16
22389;BME280;11362;48.102;11.620;2023-02-27T04:49:53;95372.38;;;23.37;33.13
22389;BME280;11362;48.102;11.620;2023-02-27T04:52:28;95369.59;;;23.37;33.04
22389;BME280;11362;48.102;11.620;2023-02-27T04:58:17;95364.06;;;23.37;33.13
22389;BME280;11362;48.102;11.620;2023-02-27T05:00:48;95364.06;;;23.37;33.11
22389;BME280;11362;48.102;11.620;2023-02-27T05:03:39;95360.88;;;23.38;33.04
22389;BME280;11362;48.102;11.620;2023-02-27T05:06:03;95363.25;;;23.36;33.10
22389;BME280;11362;48.102;11.620;2023-02-27T05:08:40;95365.63;;;23.38;33.09
22389;BME280;11362;48.102;11.620;2023-02-27T05:11:18;95364.06;;;23.37;32.96
22389;BME280;11362;48.102;11.620;2023-02-27T05:13:52;95365.63;;;23.38;33.09
22389;BME280;11362;48.102;11.620;2023-02-27T05:18:45;95352.97;;;23.37;32.95
22389;BME280;11362;48.102;11.620;2023-02-27T05:21:26;95360.50;;;23.36;33.02
22389;BME280;11362;48.102;11.620;2023-02-27T05:29:23;95362.50;;;23.36;32.77
22389;BME280;11362;48.102;11.620;2023-02-27T05:32:20;95359.72;;;23.36;32.91
22389;BME280;11362;48.102;11.620;2023-02-27T05:34:51;95359.72;;;23.36;33.03
22389;BME280;11362;48.102;11.620;2023-02-27T05:37:23;95358.50;;;23.37;32.93
22389;BME280;11362;48.102;11.620;2023-02-27T05:39:51;95356.94;;;23.36;32.92
22389;BME280;11362;48.102;11.620;2023-02-27T05:42:22;95361.28;;;23.37;32.80
22389;BME280;11362;48.102;11.620;2023-02-27T05:44:57;95357.72;;;23.36;32.95
22389;BME280;11362;48.102;11.620;2023-02-27T05:47:28;95356.94;;;23.36;32.87
22389;BME280;11362;48.102;11.620;2023-02-27T05:50:06;95357.72;;;23.36;32.73
22389;BME280;11362;48.102;11.620;2023-02-27T05:52:34;95360.88;;;23.38;32.66
22389;BME280;11362;48.102;11.620;2023-02-27T05:55:10;95355.34;;;23.38;32.68
22389;BME280;11362;48.102;11.620;2023-02-27T05:57:50;95352.97;;;23.37;32.49
22389;BME280;11362;48.102;11.620;2023-02-27T06:00:43;95389.78;;;23.37;32.49
22389;BME280;11362;48.102;11.620;2023-02-27T06:03:09;95355.75;;;23.37;32.35
22389;BME280;11362;48.102;11.620;2023-02-27T06:05:36;95332.78;;;23.36;32.12
22389;BME280;11362;48.102;11.620;2023-02-27T06:08:02;95345.44;;;23.37;32.53
22389;BME280;11362;48.102;11.620;2023-02-27T06:10:27;95354.53;;;23.38;32.60
22389;BME280;11362;48.102;11.620;2023-02-27T06:12:53;95370.34;;;23.40;32.99
22389;BME280;11362;48.102;11.620;2023-02-27T06:15:18;95374.31;;;23.39;33.18
22389;BME280;11362;48.102;11.620;2023-02-27T06:17:43;95377.88;;;23.40;33.39
22389;BME280;11362;48.102;11.620;2023-02-27T06:20:09;95382.22;;;23.41;33.49
22389;BME280;11362;48.102;11.620;2023-02-27T06:22:35;95386.56;;;23.42;33.52
22389;BME280;11362;48.102;11.620;2023-02-27T06:25:00;95381.00;;;23.42;33.93
22389;BME280;11362;48.102;11.620;2023-02-27T06:27:26;95374.25;;;23.43;33.49
22389;BME280;11362;48.102;11.620;2023-02-27T06:29:52;95385.34;;;23.43;33.77
22389;BME280;11362;48.102;11.620;2023-02-27T06:32:18;95366.34;;;23.45;33.83
22389;BME280;11362;48.102;11.620;2023-02-27T06:34:43;95369.53;;;23.43;33.79
22389;BME280;11362;48.102;11.620;2023-02-27T06:37:08;95363.19;;;23.43;33.81
22389;BME280;11362;48.102;11.620;2023-02-27T06:39:34;95349.31;;;23.43;33.70
22389;BME280;11362;48.102;11.620;2023-02-27T06:41:59;95352.09;;;23.43;33.58
22389;BME280;11362;48.102;11.620;2023-02-27T06:44:24;95352.09;;;23.43;33.30
22389;BME280;11362;48.102;11.620;2023-02-27T06:46:50;95379.03;;;23.42;33.49
22389;BME280;11362;48.102;11.620;2023-02-27T06:49:15;95378.66;;;23.40;33.23
22389;BME280;11362;48.102;11.620;2023-02-27T06:51:40;95379.44;;;23.41;32.94
22389;BME280;11362;48.102;11.620;2023-02-27T06:54:05;95376.69;;;23.41;33.12
22389;BME280;11362;48.102;11.620;2023-02-27T06:56:31;95385.00;;;23.41;33.12
22389;BME280;11362;48.102;11.620;2023-02-27T06:58:56;95380.66;;;23.40;33.06
22389;BME280;11362;48.102;11.620;2023-02-27T07:01:21;95388.16;;;23.39;32.92
22389;BME280;11362;48.102;11.620;2023-02-27T07:03:46;95380.66;;;23.40;32.97
22389;BME280;11362;48.102;11.620;2023-02-27T07:06:12;95378.66;;;23.40;33.00
22389;BME280;11362;48.102;11.620;2023-02-27T07:08:37;95404.00;;;23.42;33.09
22389;BME280;11362;48.102;11.620;2023-02-27T07:11:03;95396.88;;;23.42;33.15
22389;BME280;11362;48.102;11.620;2023-02-27T07:13:28;95397.66;;;23.42;33.16
22389;BME280;11362;48.102;11.620;2023-02-27T07:15:54;95429.72;;;23.43;33.09
22389;BME280;11362;48.102;11.620;2023-02-27T07:18:19;95432.69;;;23.22;29.06
22389;BME280;11362;48.102;11.620;2023-02-27T07:20:48;95431.13;;;22.74;26.24
22389;BME280;11362;48.102;11.620;2023-02-27T07:23:14;95429.47;;;22.25;25.12
22389;BME280;11362;48.102;11.620;2023-02-27T07:25:39;95434.88;;;21.74;24.26
22389;BME280;11362;48.102;11.620;2023-02-27T07:28:04;95435.31;;;21.45;23.29
22389;BME280;11362;48.102;11.620;2023-02-27T07:30:30;95440.50;;;21.25;23.25
22389;BME280;11362;48.102;11.620;2023-02-27T07:32:55;95436.47;;;21.68;24.14
22389;BME280;11362;48.102;11.620;2023-02-27T07:35:20;95441.44;;;22.05;24.79
22389;BME280;11362;48.102;11.620;2023-02-27T07:37:46;95447.25;;;22.28;25.72
22389;BME280;11362;48.102;11.620;2023-02-27T07:40:11;95443.22;;;22.43;26.11
22389;BME280;11362;48.102;11.620;2023-02-27T07:42:37;95446.69;;;22.54;26.64
22389;BME280;11362;48.102;11.620;2023-02-27T07:45:03;95462.06;;;22.62;26.94
22389;BME280;11362;48.102;11.620;2023-02-27T07:47:28;95457.28;;;22.66;27.67
22389;BME280;11362;48.102;11.620;2023-02-27T07:49:53;95447.00;;;22.70;27.65
22389;BME280;11362;48.102;11.620;2023-02-27T07:52:19;95426.78;;;22.73;27.85
22389;BME280;11362;48.102;11.620;2023-02-27T07:54:44;95410.53;;;22.75;28.19
22389;BME280;11362;48.102;11.620;2023-02-27T07:57:09;95408.16;;;22.77;28.08
22389;BME280;11362;48.102;11.620;2023-02-27T07:59:34;95410.50;;;22.78;28.38
22389;BME280;11362;48.102;11.620;2023-02-27T08:02:00;95430.28;;;22.80;28.54
22389;BME280;11362;48.102;11.620;2023-02-27T08:04:25;95427.09;;;22.82;28.61
22389;BME280;11362;48.102;11.620;2023-02-27T08:06:50;95429.47;;;22.83;28.61
22389;BME280;11362;48.102;11.620;2023-02-27T08:09:16;95434.63;;;22.85;28.78
22389;BME280;11362;48.102;11.620;2023-02-27T08:11:41;95429.06;;;22.85;28.97
22389;BME280;11362;48.102;11.620;2023-02-27T08:14:06;95436.56;;;22.88;28.99
22389;BME280;11362;48.102;11.620;2023-02-27T08:16:32;95434.16;;;22.90;29.00
22389;BME280;11362;48.102;11.620;2023-02-27T08:18:59;95436.91;;;22.90;29.34
22389;BME280;11362;48.102;11.620;2023-02-27T08:21:24;95437.31;;;22.92;29.17
22389;BME280;11362;48.102;11.620;2023-02-27T08:23:50;95437.31;;;22.92;29.27
22389;BME280;11362;48.102;11.620;2023-02-27T08:26:15;95434.13;;;22.93;29.14
22389;BME280;11362;48.102;11.620;2023-02-27T08:28:41;95443.22;;;22.94;29.21
22389;BME280;11362;48.102;11.620;2023-02-27T08:31:06;95435.28;;;22.96;29.44
22389;BME280;11362;48.102;11.620;2023-02-27T08:33:32;95449.91;;;23.00;29.44
22389;BME280;11362;48.102;11.620;2023-02-27T08:35:58;95457.03;;;23.01;29.38
22389;BME280;11362;48.102;11.620;2023-02-27T08:38:23;95453.44;;;23.00;29.53
22389;BME280;11362;48.102;11.620;2023-02-27T08:40:50;95449.09;;;23.03;29.48
22389;BME280;11362;48.102;11.620;2023-02-27T08:43:15;95451.84;;;23.03;29.49
22389;BME280;11362;48.102;11.620;2023-02-27T08:45:40;95457.75;;;23.05;29.63
22389;BME280;11362;48.102;11.620;2023-02-27T08:48:06;95456.59;;;23.06;29.59
22389;BME280;11362;48.102;11.620;2023-02-27T08:50:31;95456.97;;;23.08;29.61
22389;BME280;11362;48.102;11.620;2023-02-27T08:52:56;95452.19;;;23.08;29.64
22389;BME280;11362;48.102;11.620;2023-02-27T08:55:21;95464.06;;;23.09;29.79
22389;BME280;11362;48.102;11.620;2023-02-27T08:57:47;95469.97;;;23.11;29.95
22389;BME280;11362;48.102;11.620;2023-02-27T09:00:12;95472.34;;;23.12;29.60
22389;BME280;11362;48.102;11.620;2023-02-27T09:02:38;95475.13;;;23.12;29.83
22389;BME280;11362;48.102;11.620;2023-02-27T09:05:03;95473.94;;;23.13;29.69
22389;BME280;11362;48.102;11.620;2023-02-27T09:07:29;95481.47;;;23.16;29.49
22389;BME280;11362;48.102;11.620;2023-02-27T09:09:54;95480.66;;;23.16;29.74
22389;BME280;11362;48.102;11.620;2023-02-27T09:12:19;95476.69;;;23.17;29.86
22389;BME280;11362;48.102;11.620;2023-02-27T09:14:45;95478.28;;;23.18;29.82
22389;BME280;11362;48.102;11.620;2023-02-27T09:17:10;95478.63;;;23.20;30.04
22389;BME280;11362;48.102;11.620;2023-02-27T09:19:35;95478.25;;;23.21;30.30
22389;BME280;11362;48.102;11.620;2023-02-27T09:22:00;95475.84;;;23.23;30.56
22389;BME280;11362;48.102;11.620;2023-02-27T09:24:26;95485.31;;;23.26;31.09
22389;BME280;11362;48.102;11.620;2023-02-27T09:26:51;95471.88;;;23.28;31.57
22389;BME280;11362;48.102;11.620;2023-02-27T09:29:17;95486.09;;;23.30;31.88
22389;BME280;11362;48.102;11.620;2023-02-27T09:31:42;95489.63;;;23.30;32.20
22389;BME280;11362;48.102;11.620;2023-02-27T09:34:07;95493.19;;;23.31;32.31
22389;BME280;11362;48.102;11.620;2023-02-27T09:36:32;95503.50;;;23.30;32.30
22389;BME280;11362;48.102;11.620;2023-02-27T09:38:58;95496.38;;;23.29;32.42
22389;BME280;11362;48.102;11.620;2023-02-27T09:41:41;95505.09;;;23.31;32.25
22389;BME280;11362;48.102;11.620;2023-02-27T09:44:32;95508.63;;;23.32;32.27
22389;BME280;11362;48.102;11.620;2023-02-27T09:46:59;95508.22;;;23.33;32.23
22389;BME280;11362;48.102;11.620;2023-02-27T09:49:32;95512.16;;;23.36;32.27
22389;BME280;11362;48.102;11.620;2023-02-27T09:52:00;95513.34;;;23.38;32.39
22389;BME280;11362;48.102;11.620;2023-02-27T09:54:30;95518.47;;;23.39;32.15
22389;BME280;11362;48.102;11.620;2023-02-27T09:56:58;95524.00;;;23.39;32.17
22389;BME280;11362;48.102;11.620;2023-02-27T09:59:46;95518.06;;;23.41;32.08
22389;BME280;11362;48.102;11.620;2023-02-27T10:05:23;95534.66;;;23.44;32.09
22389;BME280;11362;48.102;11.620;2023-02-27T10:08:03;95528.31;;;23.44;32.14
22389;BME280;11362;48.102;11.620;2023-02-27T10:10:55;95522.00;;;23.43;32.36
22389;BME280;11362;48.102;11.620;2023-02-27T10:16:13;95539.00;;;23.45;32.00
22389;BME280;11362;48.102;11.620;2023-02-27T10:18:55;95534.25;;;23.46;32.13
22389;BME280;11362;48.102;11.620;2023-02-27T10:21:25;95540.56;;;23.46;32.22
22389;BME280;11362;48.102;11.620;2023-02-27T10:24:03;95546.13;;;23.46;32.21
22389;BME280;11362;48.102;11.620;2023-02-27T10:26:36;95536.59;;;23.47;32.28
22389;BME280;11362;48.102;11.620;2023-02-27T10:29:15;95541.78;;;23.45;32.19
22389;BME280;11362;48.102;11.620;2023-02-27T10:31:42;95538.59;;;23.47;32.27
22389;BME280;11362;48.102;11.620;2023-02-27T10:34:12;95544.16;;;23.47;32.30
22389;BME280;11362;48.102;11.620;2023-02-27T10:36:38;95542.16;;;23.47;32.18
22389;BME280;11362;48.102;11.620;2023-02-27T10:39:06;95547.69;;;23.47;31.89
22389;BME280;11362;48.102;11.620;2023-02-27T10:41:34;95550.47;;;23.47;32.06
22389;BME280;11362;48.102;11.620;2023-02-27T10:44:00;95551.25;;;23.48;32.09
22389;BME280;11362;48.102;11.620;2023-02-27T10:46:30;95553.22;;;23.47;32.05
22389;BME280;11362;48.102;11.620;2023-02-27T10:48:59;95551.63;;;23.50;32.08
22389;BME280;11362;48.102;11.620;2023-02-27T10:56:47;95554.41;;;23.50;32.04
22389;BME280;11362;48.102;11.620;2023-02-27T10:59:27;95550.84;;;23.49;31.97
22389;BME280;11362;48.102;11.620;2023-02-27T11:01:58;95556.41;;;23.49;31.89
22389;BME280;11362;48.102;11.620;2023-02-27T11:04:28;95550.84;;;23.49;32.04
22389;BME280;11362;48.102;11.620;2023-02-27T11:06:54;95550.06;;;23.49;32.03
22389;BME280;11362;48.102;11.620;2023-02-27T11:09:25;95557.59;;;23.48;31.94
22389;BME280;11362;48.102;11.620;2023-02-27T11:11:51;95552.06;;;23.48;31.91
22389;BME280;11362;48.102;11.620;2023-02-27T11:14:29;95556.81;;;23.48;31.92
22389;BME280;11362;48.102;11.620;2023-02-27T11:16:58;95546.91;;;23.47;31.85
22389;BME280;11362;48.102;11.620;2023-02-27T11:19:37;95550.47;;;23.47;31.86
22389;BME280;11362;48.102;11.620;2023-02-27T11:22:14;95553.22;;;23.47;31.92
22389;BME280;11362;48.102;11.620;2023-02-27T11:24:40;95548.88;;;23.46;31.90
22389;BME280;11362;48.102;11.620;2023-02-27T11:27:24;95547.31;;;23.45;31.86
22389;BME280;11362;48.102;11.620;2023-02-27T11:29:58;95549.69;;;23.47;31.75
22389;BME280;11362;48.102;11.620;2023-02-27T11:32:34;95549.31;;;23.45;31.76
22389;BME280;11362;48.102;11.620;2023-02-27T11:35:01;95547.31;;;23.45;31.70
22389;BME280;11362;48.102;11.620;2023-02-27T11:37:34;95548.88;;;23.46;31.68
22389;BME280;11362;48.102;11.620;2023-02-27T11:42:36;95542.56;;;23.46;31.65
22389;BME280;11362;48.102;11.620;2023-02-27T11:45:04;95538.59;;;23.47;31.65
22389;BME280;11362;48.102;11.620;2023-02-27T11:47:39;95528.72;;;23.46;31.74
22389;BME280;11362;48.102;11.620;2023-02-27T11:50:31;95535.03;;;23.46;31.62
22389;BME280;11362;48.102;11.620;2023-02-27T11:55:53;95539.81;;;23.46;31.78
22389;BME280;11362;48.102;11.620;2023-02-27T11:58:21;95542.16;;;23.47;31.64
22389;BME280;11362;48.102;11.620;2023-02-27T12:00:53;95530.28;;;23.47;31.47
22389;BME280;11362;48.102;11.620;2023-02-27T12:03:32;95531.06;;;23.47;31.51
22389;BME280;11362;48.102;11.620;2023-02-27T12:06:02;95531.47;;;23.46;31.31
22389;BME280;11362;48.102;11.620;2023-02-27T12:08:42;95530.28;;;23.47;31.49
22389;BME280;11362;48.102;11.620;2023-02-27T12:13:57;95532.66;;;23.48;31.61
22389;BME280;11362;48.102;11.620;2023-02-27T12:16:47;95537.00;;;23.49;31.48
22389;BME280;11362;48.102;11.620;2023-02-27T12:19:20;95542.94;;;23.48;31.71
22389;BME280;11362;48.102;11.620;2023-02-27T12:21:53;95544.13;;;23.50;31.81
22389;BME280;11362;48.102;11.620;2023-02-27T12:30:18;95540.97;;;23.48;31.77
22389;BME280;11362;48.102;11.620;2023-02-27T12:33:15;95536.59;;;23.47;31.57
22389;BME280;11362;48.102;11.620;2023-02-27T12:35:45;95533.81;;;23.47;31.50
22389;BME280;11362;48.102;11.620;2023-02-27T12:38:14;95540.56;;;23.46;31.36
22389;BME280;11362;48.102;11.620;2023-02-27T12:40:49;95537.41;;;23.48;31.54
22389;BME280;11362;48.102;11.620;2023-02-27T12:48:46;95510.47;;;23.48;31.47
22389;BME280;11362;48.102;11.620;2023-02-27T12:56:30;95519.19;;;23.47;31.25
22389;BME280;11362;48.102;11.620;2023-02-27T13:04:44;95541.00;;;23.45;31.11
22389;BME280;11362;48.102;11.620;2023-02-27T13:07:31;95539.00;;;23.45;31.27
22389;BME280;11362;48.102;11.620;2023-02-27T13:09:59;95539.00;;;23.45;31.04
22389;BME280;11362;48.102;11.620;2023-02-27T13:12:41;95545.34;;;23.46;31.10
22389;BME280;11362;48.102;11.620;2023-02-27T13:20:43;95534.66;;;23.44;31.06
22389;BME280;11362;48.102;11.620;2023-02-27T13:23:36;95542.97;;;23.44;30.75
22389;BME280;11362;48.102;11.620;2023-02-27T13:26:15;95547.31;;;23.45;30.95
22389;BME280;11362;48.102;11.620;2023-02-27T13:28:42;95537.44;;;23.44;31.03
22389;BME280;11362;48.102;11.620;2023-02-27T13:31:18;95539.81;;;23.46;31.20
22389;BME280;11362;48.102;11.620;2023-02-27T13:36:23;95549.31;;;23.45;31.09
22389;BME280;11362;48.102;11.620;2023-02-27T13:38:53;95550.09;;;23.45;30.83
22389;BME280;11362;48.102;11.620;2023-02-27T13:43:51;95535.03;;;23.46;30.86
22389;BME280;11362;48.102;11.620;2023-02-27T13:46:32;95543.78;;;23.45;30.92
22389;BME280;11362;48.102;11.620;2023-02-27T13:56:38;95541.38;;;23.47;30.74
22389;BME280;11362;48.102;11.620;2023-02-27T13:59:25;95554.88;;;23.45;30.82
22389;BME280;11362;48.102;11.620;2023-02-27T14:01:58;95546.91;;;23.47;30.70
22389;BME280;11362;48.102;11.620;2023-02-27T14:04:26;95542.94;;;23.48;30.70
22389;BME280;11362;48.102;11.620;2023-02-27T14:06:59;95546.13;;;23.46;30.72
22389;BME280;11362;48.102;11.620;2023-02-27T14:09:32;95540.56;;;23.46;30.68
22389;BME280;11362;48.102;11.620;2023-02-27T14:12:00;95546.91;;;23.47;30.62
22389;BME280;11362;48.102;11.620;2023-02-27T14:17:06;95544.91;;;23.47;30.66
22389;BME280;11362;48.102;11.620;2023-02-27T14:24:52;95544.53;;;23.45;30.85
22389;BME280;11362;48.102;11.620;2023-02-27T14:27:25;95547.31;;;23.45;30.67
22389;BME280;11362;48.102;11.620;2023-02-27T14:29:55;95542.19;;;23.44;30.76
22389;BME280;11362;48.102;11.620;2023-02-27T14:32:24;95542.97;;;23.44;30.74
22389;BME280;11362;48.102;11.620;2023-02-27T14:34:52;95540.19;;;23.44;30.65
22389;BME280;11362;48.102;11.620;2023-02-27T14:37:20;95538.22;;;23.45;30.61
22389;BME280;11362;48.102;11.620;2023-02-27T14:39:47;95555.66;;;23.42;30.75
22389;BME280;11362;48.102;11.620;2023-02-27T14:44:40;95517.66;;;23.42;30.66
22389;BME280;11362;48.102;11.620;2023-02-27T14:47:13;95524.38;;;23.45;30.83
22389;BME280;11362;48.102;11.620;2023-02-27T14:49:39;95520.78;;;23.44;30.97
22389;BME280;11362;48.102;11.620;2023-02-27T14:52:19;95535.03;;;23.46;31.45
22389;BME280;11362;48.102;11.620;2023-02-27T14:54:45;95542.16;;;23.47;31.61
22389;BME280;11362;48.102;11.620;2023-02-27T14:57:22;95514.41;;;23.47;31.91
22389;BME280;11362;48.102;11.620;2023-02-27T14:59:50;95515.22;;;23.48;32.09
22389;BME280;11362;48.102;11.620;2023-02-27T15:04:45;95545.28;;;23.53;32.60
22389;BME280;11362;48.102;11.620;2023-02-27T15:07:18;95541.31;;;23.54;33.13
22389;BME280;11362;48.102;11.620;2023-02-27T15:09:45;95541.31;;;23.54;33.18